sensor_id;sensor_type;location;lat;lon;timestamp;pressure;altitude;pressure_sealevel;temperature;humidity
18749;BME280;9503;53.560;10.246;2023-02-16T07:02:30;101305.75;;;2.17;100.00
18749;BME280;9503;53.560;10.246;2023-02-16T07:04:57;101299.66;;;2.34;100.00
18749;BME280;9503;53.560;10.246;2023-02-16T07:07:24;101295.56;;;2.44;100.00
18749;BME280;9503;53.560;10.246;2023-02-16T07:09:50;101289.69;;;2.54;100.00
18749;BME280;9503;53.560;10.246;2023-02-16T07:12:17;101294.28;;;2.58;100.00
18749;BME280;9503;53.560;10.246;2023-02-16T07:14:44;101294.94;;;2.66;100.00
18749;BME280;9503;53.560;10.246;2023-02-16T07:17:10;101300.69;;;2.73;100.00
18749;BME280;9503;53.560;10.246;2023-02-16T07:19:38;101282.03;;;2.92;100.00
18749;BME280;9503;53.560;10.246;2023-02-16T07:22:05;101281.94;;;3.00;100.00
18749;BME280;9503;53.560;10.246;2023-02-16T07:24:31;101283.50;;;3.09;100.00
18749;BME280;9503;53.560;10.246;2023-02-16T07:26:58;101288.31;;;3.16;100.00
18749;BME280;9503;53.560;10.246;2023-02-16T07:29:24;101287.50;;;3.36;100.00
18749;BME280;9503;53.560;10.246;2023-02-16T07:31:51;101273.25;;;3.56;100.00
18749;BME280;9503;53.560;10.246;2023-02-16T07:34:20;101269.59;;;3.63;100.00
18749;BME280;9503;53.560;10.246;2023-02-16T07:36:48;101272.28;;;3.75;100.00
18749;BME280;9503;53.560;10.246;2023-02-16T07:39:15;101275.44;;;3.82;100.00
18749;BME280;9503;53.560;10.246;2023-02-16T07:41:41;101279.75;;;3.83;100.00
18749;BME280;9503;53.560;10.246;2023-02-16T07:44:08;101281.41;;;3.83;100.00
18749;BME280;9503;53.560;10.246;2023-02-16T07:46:35;101295.34;;;3.88;100.00
18749;BME280;9503;53.560;10.246;2023-02-16T07:49:01;101295.97;;;3.85;100.00
18749;BME280;9503;53.560;10.246;2023-02-16T07:51:29;101296.09;;;3.87;100.00
18749;BME280;9503;53.560;10.246;2023-02-16T07:53:59;101308.03;;;3.98;100.00
18749;BME280;9503;53.560;10.246;2023-02-16T07:56:28;101308.41;;;4.23;100.00
18749;BME280;9503;53.560;10.246;2023-02-16T07:58:56;101313.75;;;4.26;100.00
18749;BME280;9503;53.560;10.246;2023-02-16T08:01:23;101307.13;;;4.38;100.00
18749;BME280;9503;53.560;10.246;2023-02-16T08:03:50;101317.66;;;4.43;100.00
18749;BME280;9503;53.560;10.246;2023-02-16T08:06:18;101310.19;;;4.44;100.00
18749;BME280;9503;53.560;10.246;2023-02-16T08:08:45;101311.03;;;4.55;100.00
18749;BME280;9503;53.560;10.246;2023-02-16T08:11:15;101315.63;;;4.59;100.00
18749;BME280;9503;53.560;10.246;2023-02-16T08:13:42;101328.19;;;4.58;100.00
18749;BME280;9503;53.560;10.246;2023-02-16T08:16:09;101349.00;;;4.54;100.00
18749;BME280;9503;53.560;10.246;2023-02-16T08:18:36;101358.13;;;4.62;100.00
18749;BME280;9503;53.560;10.246;2023-02-16T08:21:08;101369.19;;;4.52;100.00
18749;BME280;9503;53.560;10.246;2023-02-16T08:23:38;101369.94;;;4.61;100.00
18749;BME280;9503;53.560;10.246;2023-02-16T08:26:07;101380.88;;;4.70;100.00
18749;BME280;9503;53.560;10.246;2023-02-16T08:28:36;101380.47;;;4.86;100.00
18749;BME280;9503;53.560;10.246;2023-02-16T08:31:04;101384.78;;;4.77;100.00
18749;BME280;9503;53.560;10.246;2023-02-16T08:33:32;101393.56;;;4.81;100.00
18749;BME280;9503;53.560;10.246;2023-02-16T08:35:59;101394.53;;;5.03;100.00
18749;BME280;9503;53.560;10.246;2023-02-16T08:38:26;101387.28;;;5.08;100.00
18749;BME280;9503;53.560;10.246;2023-02-16T08:40:52;101385.50;;;4.96;100.00
18749;BME280;9503;53.560;10.246;2023-02-16T08:43:20;101390.06;;;5.11;100.00
18749;BME280;9503;53.560;10.246;2023-02-16T08:45:48;101391.06;;;5.13;100.00
18749;BME280;9503;53.560;10.246;2023-02-16T08:48:16;101400.94;;;5.20;100.00
18749;BME280;9503;53.560;10.246;2023-02-16T08:50:43;101403.66;;;5.21;100.00
18749;BME280;9503;53.560;10.246;2023-02-16T08:53:11;101412.50;;;5.26;100.00
18749;BME280;9503;53.560;10.246;2023-02-16T08:55:38;101419.22;;;5.36;100.00
18749;BME280;9503;53.560;10.246;2023-02-16T08:58:04;101426.81;;;5.46;100.00
18749;BME280;9503;53.560;10.246;2023-02-16T09:00:31;101429.13;;;5.65;100.00
18749;BME280;9503;53.560;10.246;2023-02-16T09:03:03;101430.22;;;5.79;100.00
18749;BME280;9503;53.560;10.246;2023-02-16T09:05:31;101433.03;;;5.82;100.00
18749;BME280;9503;53.560;10.246;2023-02-16T09:07:58;101436.53;;;5.94;100.00
18749;BME280;9503;53.560;10.246;2023-02-16T09:10:24;101437.38;;;6.05;100.00
18749;BME280;9503;53.560;10.246;2023-02-16T09:12:51;101442.41;;;6.15;100.00
18749;BME280;9503;53.560;10.246;2023-02-16T09:15:18;101439.25;;;6.29;100.00
18749;BME280;9503;53.560;10.246;2023-02-16T09:17:45;101437.69;;;6.20;100.00
18749;BME280;9503;53.560;10.246;2023-02-16T09:20:13;101446.09;;;6.19;100.00
18749;BME280;9503;53.560;10.246;2023-02-16T09:22:42;101443.25;;;6.26;100.00
18749;BME280;9503;53.560;10.246;2023-02-16T09:25:09;101456.50;;;6.22;100.00
18749;BME280;9503;53.560;10.246;2023-02-16T09:27:36;101477.53;;;6.19;100.00
18749;BME280;9503;53.560;10.246;2023-02-16T09:30:03;101478.59;;;6.11;100.00
18749;BME280;9503;53.560;10.246;2023-02-16T09:32:30;101473.44;;;6.21;100.00
18749;BME280;9503;53.560;10.246;2023-02-16T09:34:56;101478.53;;;6.21;100.00
18749;BME280;9503;53.560;10.246;2023-02-16T09:37:25;101474.81;;;6.28;100.00
18749;BME280;9503;53.560;10.246;2023-02-16T09:39:51;101478.47;;;6.31;100.00
18749;BME280;9503;53.560;10.246;2023-02-16T09:42:26;101476.75;;;6.42;100.00
18749;BME280;9503;53.560;10.246;2023-02-16T09:44:57;101475.19;;;6.44;100.00
18749;BME280;9503;53.560;10.246;2023-02-16T09:47:29;101480.66;;;6.49;100.00
18749;BME280;9503;53.560;10.246;2023-02-16T09:49:58;101498.91;;;6.43;100.00
18749;BME280;9503;53.560;10.246;2023-02-16T09:52:33;101489.19;;;6.49;100.00
18749;BME280;9503;53.560;10.246;2023-02-16T09:55:04;101489.28;;;6.51;100.00
18749;BME280;9503;53.560;10.246;2023-02-16T09:57:39;101497.78;;;6.73;100.00
18749;BME280;9503;53.560;10.246;2023-02-16T10:00:16;101500.53;;;6.64;100.00
18749;BME280;9503;53.560;10.246;2023-02-16T10:02:51;101500.59;;;6.88;100.00
18749;BME280;9503;53.560;10.246;2023-02-16T10:05:24;101504.09;;;7.00;100.00
18749;BME280;9503;53.560;10.246;2023-02-16T10:08:00;101500.47;;;7.20;100.00
18749;BME280;9503;53.560;10.246;2023-02-16T10:10:36;101497.81;;;7.54;100.00
18749;BME280;9503;53.560;10.246;2023-02-16T10:13:08;101492.72;;;7.30;100.00
18749;BME280;9503;53.560;10.246;2023-02-16T10:15:40;101503.38;;;7.36;100.00
18749;BME280;9503;53.560;10.246;2023-02-16T10:18:16;101503.34;;;7.48;100.00
18749;BME280;9503;53.560;10.246;2023-02-16T10:20:47;101516.03;;;7.93;100.00
18749;BME280;9503;53.560;10.246;2023-02-16T10:23:28;101514.81;;;8.37;100.00
18749;BME280;9503;53.560;10.246;2023-02-16T10:26:01;101511.31;;;8.11;100.00
18749;BME280;9503;53.560;10.246;2023-02-16T10:28:36;101507.38;;;7.80;100.00
18749;BME280;9503;53.560;10.246;2023-02-16T10:31:12;101506.25;;;8.48;100.00
18749;BME280;9503;53.560;10.246;2023-02-16T10:33:41;101506.03;;;8.70;100.00
18749;BME280;9503;53.560;10.246;2023-02-16T10:36:16;101508.69;;;8.71;100.00
18749;BME280;9503;53.560;10.246;2023-02-16T10:38:54;101501.81;;;8.70;100.00
18749;BME280;9503;53.560;10.246;2023-02-16T10:41:31;101513.41;;;8.90;100.00
18749;BME280;9503;53.560;10.246;2023-02-16T10:44:07;101513.75;;;8.83;100.00
18749;BME280;9503;53.560;10.246;2023-02-16T10:46:39;101504.56;;;8.73;100.00
18749;BME280;9503;53.560;10.246;2023-02-16T10:49:08;101495.91;;;8.46;100.00
18749;BME280;9503;53.560;10.246;2023-02-16T10:51:36;101503.47;;;8.33;100.00
18749;BME280;9503;53.560;10.246;2023-02-16T10:54:09;101506.06;;;8.21;100.00
18749;BME280;9503;53.560;10.246;2023-02-16T10:56:44;101511.75;;;8.17;100.00
18749;BME280;9503;53.560;10.246;2023-02-16T10:59:15;101493.88;;;8.17;100.00
18749;BME280;9503;53.560;10.246;2023-02-16T11:01:45;101500.38;;;8.37;100.00
18749;BME280;9503;53.560;10.246;2023-02-16T11:04:30;101494.03;;;8.44;100.00
18749;BME280;9503;53.560;10.246;2023-02-16T11:07:02;101499.00;;;8.54;100.00
18749;BME280;9503;53.560;10.246;2023-02-16T11:09:30;101492.66;;;8.12;100.00
18749;BME280;9503;53.560;10.246;2023-02-16T11:11:58;101491.16;;;8.27;100.00
18749;BME280;9503;53.560;10.246;2023-02-16T11:14:27;101495.22;;;8.49;100.00
18749;BME280;9503;53.560;10.246;2023-02-16T11:17:06;101499.19;;;8.57;100.00
18749;BME280;9503;53.560;10.246;2023-02-16T11:19:36;101492.63;;;8.61;100.00
18749;BME280;9503;53.560;10.246;2023-02-16T11:22:05;101493.66;;;8.51;100.00
18749;BME280;9503;53.560;10.246;2023-02-16T11:24:36;101480.78;;;8.49;100.00
18749;BME280;9503;53.560;10.246;2023-02-16T11:27:05;101495.59;;;8.42;100.00
18749;BME280;9503;53.560;10.246;2023-02-16T11:29:33;101495.44;;;8.52;100.00
18749;BME280;9503;53.560;10.246;2023-02-16T11:32:04;101496.69;;;8.70;100.00
18749;BME280;9503;53.560;10.246;2023-02-16T11:34:33;101491.59;;;8.70;100.00
18749;BME280;9503;53.560;10.246;2023-02-16T11:37:02;101485.69;;;8.71;100.00
18749;BME280;9503;53.560;10.246;2023-02-16T11:39:36;101486.44;;;8.82;100.00
18749;BME280;9503;53.560;10.246;2023-02-16T11:42:06;101478.59;;;8.67;100.00
18749;BME280;9503;53.560;10.246;2023-02-16T11:44:36;101485.63;;;8.58;100.00
18749;BME280;9503;53.560;10.246;2023-02-16T11:47:05;101476.53;;;8.62;100.00
18749;BME280;9503;53.560;10.246;2023-02-16T11:49:35;101482.66;;;8.52;100.00
18749;BME280;9503;53.560;10.246;2023-02-16T11:52:18;101477.19;;;8.59;100.00
18749;BME280;9503;53.560;10.246;2023-02-16T11:54:49;101482.34;;;8.47;100.00
18749;BME280;9503;53.560;10.246;2023-02-16T11:57:23;101483.34;;;8.49;100.00
18749;BME280;9503;53.560;10.246;2023-02-16T11:59:51;101483.97;;;8.58;100.00
18749;BME280;9503;53.560;10.246;2023-02-16T12:05:34;101476.72;;;8.40;100.00
18749;BME280;9503;53.560;10.246;2023-02-16T12:08:19;101473.06;;;8.36;100.00
18749;BME280;9503;53.560;10.246;2023-02-16T12:11:03;101467.81;;;8.46;100.00
18749;BME280;9503;53.560;10.246;2023-02-16T12:13:35;101463.00;;;8.51;100.00
18749;BME280;9503;53.560;10.246;2023-02-16T12:16:17;101470.03;;;8.42;100.00
18749;BME280;9503;53.560;10.246;2023-02-16T12:18:58;101463.94;;;8.40;100.00
18749;BME280;9503;53.560;10.246;2023-02-16T12:21:35;101462.88;;;8.24;100.00
18749;BME280;9503;53.560;10.246;2023-02-16T12:24:09;101459.50;;;8.37;100.00
18749;BME280;9503;53.560;10.246;2023-02-16T12:26:48;101452.84;;;8.27;100.00
18749;BME280;9503;53.560;10.246;2023-02-16T12:29:27;101463.50;;;8.34;100.00
18749;BME280;9503;53.560;10.246;2023-02-16T12:32:07;101451.59;;;8.34;100.00
18749;BME280;9503;53.560;10.246;2023-02-16T12:34:48;101453.50;;;8.37;100.00
18749;BME280;9503;53.560;10.246;2023-02-16T12:37:20;101453.72;;;8.40;100.00
18749;BME280;9503;53.560;10.246;2023-02-16T12:39:58;101449.94;;;8.35;100.00
18749;BME280;9503;53.560;10.246;2023-02-16T12:42:47;101447.84;;;8.41;100.00
18749;BME280;9503;53.560;10.246;2023-02-16T12:45:19;101436.03;;;8.43;100.00
18749;BME280;9503;53.560;10.246;2023-02-16T12:47:51;101437.16;;;8.35;100.00
18749;BME280;9503;53.560;10.246;2023-02-16T12:50:22;101433.28;;;8.40;100.00
18749;BME280;9503;53.560;10.246;2023-02-16T12:52:53;101430.28;;;8.34;100.00
18749;BME280;9503;53.560;10.246;2023-02-16T12:55:26;101433.19;;;8.38;100.00
18749;BME280;9503;53.560;10.246;2023-02-16T12:58:01;101430.50;;;8.37;100.00
18749;BME280;9503;53.560;10.246;2023-02-16T13:00:40;101430.72;;;8.40;100.00
18749;BME280;9503;53.560;10.246;2023-02-16T13:03:19;101436.91;;;8.43;100.00
18749;BME280;9503;53.560;10.246;2023-02-16T13:05:55;101428.78;;;8.49;100.00
18749;BME280;9503;53.560;10.246;2023-02-16T13:08:28;101416.72;;;8.35;100.00
18749;BME280;9503;53.560;10.246;2023-02-16T13:11:08;101424.28;;;8.45;100.00
18749;BME280;9503;53.560;10.246;2023-02-16T13:13:38;101417.97;;;8.40;100.00
18749;BME280;9503;53.560;10.246;2023-02-16T13:16:12;101410.38;;;8.41;100.00
18749;BME280;9503;53.560;10.246;2023-02-16T13:18:42;101406.69;;;8.49;100.00
18749;BME280;9503;53.560;10.246;2023-02-16T13:21:13;101403.34;;;8.50;100.00
18749;BME280;9503;53.560;10.246;2023-02-16T13:23:54;101402.88;;;8.56;100.00
18749;BME280;9503;53.560;10.246;2023-02-16T13:26:35;101405.50;;;8.57;100.00
18749;BME280;9503;53.560;10.246;2023-02-16T13:32:25;101396.19;;;8.33;100.00
18749;BME280;9503;53.560;10.246;2023-02-16T13:35:15;101386.31;;;8.38;100.00
18749;BME280;9503;53.560;10.246;2023-02-16T13:37:56;101382.44;;;8.31;100.00
18749;BME280;9503;53.560;10.246;2023-02-16T13:40:36;101377.41;;;8.32;100.00
18749;BME280;9503;53.560;10.246;2023-02-16T13:43:15;101375.41;;;8.40;100.00
18749;BME280;9503;53.560;10.246;2023-02-16T13:45:47;101369.81;;;8.59;100.00
18749;BME280;9503;53.560;10.246;2023-02-16T13:48:21;101362.16;;;8.59;100.00
18749;BME280;9503;53.560;10.246;2023-02-16T13:50:55;101366.22;;;8.69;100.00
18749;BME280;9503;53.560;10.246;2023-02-16T13:53:22;101367.94;;;8.81;100.00
18749;BME280;9503;53.560;10.246;2023-02-16T13:56:12;101372.91;;;8.80;100.00
18749;BME280;9503;53.560;10.246;2023-02-16T13:58:39;101373.81;;;8.67;100.00
18749;BME280;9503;53.560;10.246;2023-02-16T14:01:38;101372.53;;;8.87;100.00
18749;BME280;9503;53.560;10.246;2023-02-16T14:04:11;101376.97;;;8.90;100.00
18749;BME280;9503;53.560;10.246;2023-02-16T14:06:39;101373.22;;;8.71;100.00
18749;BME280;9503;53.560;10.246;2023-02-16T14:09:29;101377.94;;;8.78;100.00
18749;BME280;9503;53.560;10.246;2023-02-16T14:12:03;101386.31;;;8.76;100.00
18749;BME280;9503;53.560;10.246;2023-02-16T14:14:44;101384.81;;;8.79;100.00
18749;BME280;9503;53.560;10.246;2023-02-16T14:17:20;101383.47;;;8.84;100.00
18749;BME280;9503;53.560;10.246;2023-02-16T14:19:51;101379.91;;;8.96;100.00
18749;BME280;9503;53.560;10.246;2023-02-16T14:22:20;101382.47;;;8.96;100.00
18749;BME280;9503;53.560;10.246;2023-02-16T14:24:51;101374.00;;;9.10;100.00
18749;BME280;9503;53.560;10.246;2023-02-16T14:27:43;101367.53;;;9.15;100.00
18749;BME280;9503;53.560;10.246;2023-02-16T14:30:17;101363.00;;;9.24;100.00
18749;BME280;9503;53.560;10.246;2023-02-16T14:32:48;101368.81;;;9.22;100.00
18749;BME280;9503;53.560;10.246;2023-02-16T14:35:19;101357.88;;;9.24;100.00
18749;BME280;9503;53.560;10.246;2023-02-16T14:37:53;101357.38;;;9.17;100.00
18749;BME280;9503;53.560;10.246;2023-02-16T14:40:37;101355.41;;;9.39;100.00
18749;BME280;9503;53.560;10.246;2023-02-16T14:43:16;101353.06;;;9.16;100.00
18749;BME280;9503;53.560;10.246;2023-02-16T14:46:26;101354.16;;;9.06;100.00
18749;BME280;9503;53.560;10.246;2023-02-16T14:52:23;101352.09;;;9.13;100.00
18749;BME280;9503;53.560;10.246;2023-02-16T14:58:21;101350.91;;;8.95;100.00
18749;BME280;9503;53.560;10.246;2023-02-16T15:00:53;101349.84;;;9.05;100.00
18749;BME280;9503;53.560;10.246;2023-02-16T15:03:24;101347.84;;;9.14;100.00
18749;BME280;9503;53.560;10.246;2023-02-16T15:05:54;101346.88;;;8.99;100.00
18749;BME280;9503;53.560;10.246;2023-02-16T15:08:25;101348.63;;;8.86;100.00
18749;BME280;9503;53.560;10.246;2023-02-16T15:11:01;101334.78;;;8.83;100.00
18749;BME280;9503;53.560;10.246;2023-02-16T15:13:39;101328.38;;;9.16;100.00
18749;BME280;9503;53.560;10.246;2023-02-16T15:16:07;101330.34;;;9.07;100.00
18749;BME280;9503;53.560;10.246;2023-02-16T15:18:42;101334.69;;;9.08;100.00
18749;BME280;9503;53.560;10.246;2023-02-16T15:21:16;101329.38;;;9.05;100.00
18749;BME280;9503;53.560;10.246;2023-02-16T15:23:48;101338.72;;;9.04;100.00
18749;BME280;9503;53.560;10.246;2023-02-16T15:26:18;101339.22;;;8.99;100.00
18749;BME280;9503;53.560;10.246;2023-02-16T15:28:52;101346.06;;;8.73;100.00
18749;BME280;9503;53.560;10.246;2023-02-16T15:31:20;101351.09;;;8.72;100.00
18749;BME280;9503;53.560;10.246;2023-02-16T15:33:55;101337.53;;;8.60;100.00
18749;BME280;9503;53.560;10.246;2023-02-16T15:36:26;101339.19;;;8.72;100.00
18749;BME280;9503;53.560;10.246;2023-02-16T15:38:57;101343.31;;;8.70;100.00
18749;BME280;9503;53.560;10.246;2023-02-16T15:41:27;101341.56;;;8.69;100.00
18749;BME280;9503;53.560;10.246;2023-02-16T15:43:56;101343.91;;;8.53;100.00
18749;BME280;9503;53.560;10.246;2023-02-16T15:46:24;101343.66;;;8.50;100.00
18749;BME280;9503;53.560;10.246;2023-02-16T15:48:53;101343.66;;;8.50;100.00
18749;BME280;9503;53.560;10.246;2023-02-16T15:51:23;101342.72;;;8.61;100.00
18749;BME280;9503;53.560;10.246;2023-02-16T15:53:53;101347.22;;;8.52;100.00
18749;BME280;9503;53.560;10.246;2023-02-16T15:56:27;101336.63;;;8.34;100.00
18749;BME280;9503;53.560;10.246;2023-02-16T15:58:59;101340.75;;;8.32;100.00
18749;BME280;9503;53.560;10.246;2023-02-16T16:01:28;101335.25;;;8.26;100.00
18749;BME280;9503;53.560;10.246;2023-02-16T16:03:58;101333.16;;;8.20;100.00
18749;BME280;9503;53.560;10.246;2023-02-16T16:06:32;101338.16;;;8.19;100.00
18749;BME280;9503;53.560;10.246;2023-02-16T16:08:59;101328.78;;;8.06;100.00
18749;BME280;9503;53.560;10.246;2023-02-16T16:11:26;101327.25;;;8.08;100.00
18749;BME280;9503;53.560;10.246;2023-02-16T16:13:53;101332.13;;;8.05;100.00
18749;BME280;9503;53.560;10.246;2023-02-16T16:16:21;101335.19;;;8.13;100.00
18749;BME280;9503;53.560;10.246;2023-02-16T16:18:51;101326.13;;;8.04;100.00
18749;BME280;9503;53.560;10.246;2023-02-16T16:21:22;101330.69;;;8.09;100.00
18749;BME280;9503;53.560;10.246;2023-02-16T16:23:59;101321.53;;;8.12;100.00
18749;BME280;9503;53.560;10.246;2023-02-16T16:26:31;101320.56;;;8.10;100.00
18749;BME280;9503;53.560;10.246;2023-02-16T16:28:59;101320.03;;;8.02;100.00
18749;BME280;9503;53.560;10.246;2023-02-16T16:31:39;101317.69;;;8.06;100.00
18749;BME280;9503;53.560;10.246;2023-02-16T16:34:09;101315.13;;;8.06;100.00
18749;BME280;9503;53.560;10.246;2023-02-16T16:36:40;101309.31;;;7.95;100.00
18749;BME280;9503;53.560;10.246;2023-02-16T16:39:22;101307.53;;;7.94;100.00
18749;BME280;9503;53.560;10.246;2023-02-16T16:42:19;101310.09;;;7.94;100.00
18749;BME280;9503;53.560;10.246;2023-02-16T16:45:31;101302.53;;;7.95;100.00
18749;BME280;9503;53.560;10.246;2023-02-16T16:48:00;101304.72;;;8.02;100.00
18749;BME280;9503;53.560;10.246;2023-02-16T16:50:34;101299.97;;;7.95;100.00
18749;BME280;9503;53.560;10.246;2023-02-16T16:53:02;101290.28;;;8.03;100.00
18749;BME280;9503;53.560;10.246;2023-02-16T16:55:49;101293.50;;;8.00;100.00
18749;BME280;9503;53.560;10.246;2023-02-16T16:58:15;101288.56;;;7.90;100.00
18749;BME280;9503;53.560;10.246;2023-02-16T17:00:42;101283.13;;;7.86;100.00
18749;BME280;9503;53.560;10.246;2023-02-16T17:03:13;101282.13;;;7.95;100.00
18749;BME280;9503;53.560;10.246;2023-02-16T17:05:40;101282.56;;;7.90;100.00
18749;BME280;9503;53.560;10.246;2023-02-16T17:08:09;101280.72;;;8.00;100.00
18749;BME280;9503;53.560;10.246;2023-02-16T17:10:38;101280.44;;;7.96;100.00
18749;BME280;9503;53.560;10.246;2023-02-16T17:13:05;101277.47;;;7.90;100.00
18749;BME280;9503;53.560;10.246;2023-02-16T17:15:36;101284.59;;;7.82;100.00
18749;BME280;9503;53.560;10.246;2023-02-16T17:18:05;101281.00;;;7.92;100.00
18749;BME280;9503;53.560;10.246;2023-02-16T17:20:33;101278.44;;;7.92;100.00
18749;BME280;9503;53.560;10.246;2023-02-16T17:22:59;101290.19;;;7.76;100.00
18749;BME280;9503;53.560;10.246;2023-02-16T17:25:29;101289.78;;;7.95;100.00
18749;BME280;9503;53.560;10.246;2023-02-16T17:27:56;101289.53;;;7.79;100.00
18749;BME280;9503;53.560;10.246;2023-02-16T17:30:23;101287.34;;;7.85;100.00
18749;BME280;9503;53.560;10.246;2023-02-16T17:32:49;101295.28;;;8.01;100.00
18749;BME280;9503;53.560;10.246;2023-02-16T17:35:16;101283.25;;;7.87;100.00
18749;BME280;9503;53.560;10.246;2023-02-16T17:37:44;101286.59;;;7.86;100.00
18749;BME280;9503;53.560;10.246;2023-02-16T17:40:13;101287.50;;;8.00;100.00
18749;BME280;9503;53.560;10.246;2023-02-16T17:42:42;101275.72;;;7.89;100.00
18749;BME280;9503;53.560;10.246;2023-02-16T17:45:08;101281.41;;;7.98;100.00
18749;BME280;9503;53.560;10.246;2023-02-16T17:47:35;101275.66;;;8.14;100.00
18749;BME280;9503;53.560;10.246;2023-02-16T17:50:02;101263.22;;;7.80;100.00
18749;BME280;9503;53.560;10.246;2023-02-16T17:52:29;101268.97;;;7.78;100.00
18749;BME280;9503;53.560;10.246;2023-02-16T17:54:57;101273.03;;;7.62;100.00
18749;BME280;9503;53.560;10.246;2023-02-16T17:57:24;101273.69;;;7.71;100.00
18749;BME280;9503;53.560;10.246;2023-02-16T17:59:52;101278.66;;;7.70;100.00
